Jewett, Wisconsin
Current Conditions -  °F | °C
As of 2:35 AM on Wednesday 26 Nov 2014 (Local Time) from KRNH Reporting Station
Overcast Overcast  
Wind Chill: 16°   Ceiling: 7500
Heat Index: 23°   Visibility: 10mi
Dew Point: 16°   Wind: 6mph
Humidity: 74%   Direction: 120°ESE
Pressure: 30.06"   Gusts: NA
Location:  45.1804°N, 92.551°W
Report Text: KRNH 260835Z AUTO 12005KT 10SM SCT060 OVC075 M05/M09 A3006 RMK AO2 T10511090
Loading
Personal Weather Stations






























Interactive Weather Map New forecast layout! Learn more

10-Day Weather Forecast

Advertisements
Track Severe Weather on mobile